sensor_id;sensor_type;location;lat;lon;timestamp;temperature;humidity
5792;DHT22;2922;53.482;10.006;2023-08-12T00:00:10;19.70;99.90
5792;DHT22;2922;53.482;10.006;2023-08-12T00:02:42;19.70;99.90
5792;DHT22;2922;53.482;10.006;2023-08-12T00:05:11;19.60;99.90
5792;DHT22;2922;53.482;10.006;2023-08-12T00:07:37;19.60;99.90
5792;DHT22;2922;53.482;10.006;2023-08-12T00:10:03;19.70;99.90
5792;DHT22;2922;53.482;10.006;2023-08-12T00:12:31;19.60;99.90
5792;DHT22;2922;53.482;10.006;2023-08-12T00:14:57;19.60;99.90
5792;DHT22;2922;53.482;10.006;2023-08-12T00:17:23;19.60;99.90
5792;DHT22;2922;53.482;10.006;2023-08-12T00:19:48;19.60;99.90
5792;DHT22;2922;53.482;10.006;2023-08-12T00:22:14;19.50;99.90
5792;DHT22;2922;53.482;10.006;2023-08-12T00:24:40;19.50;99.90
5792;DHT22;2922;53.482;10.006;2023-08-12T00:27:10;19.60;99.90
5792;DHT22;2922;53.482;10.006;2023-08-12T00:29:36;19.50;99.90
5792;DHT22;2922;53.482;10.006;2023-08-12T00:32:02;19.50;99.90
5792;DHT22;2922;53.482;10.006;2023-08-12T00:34:28;19.50;99.90
5792;DHT22;2922;53.482;10.006;2023-08-12T00:36:53;19.40;99.90
5792;DHT22;2922;53.482;10.006;2023-08-12T00:39:19;19.50;99.90
5792;DHT22;2922;53.482;10.006;2023-08-12T00:41:45;19.40;99.90
5792;DHT22;2922;53.482;10.006;2023-08-12T00:44:10;19.40;99.90
5792;DHT22;2922;53.482;10.006;2023-08-12T00:46:40;19.40;99.90
5792;DHT22;2922;53.482;10.006;2023-08-12T00:49:07;19.30;99.90
5792;DHT22;2922;53.482;10.006;2023-08-12T00:51:33;19.30;99.90
5792;DHT22;2922;53.482;10.006;2023-08-12T00:53:59;19.40;99.90
5792;DHT22;2922;53.482;10.006;2023-08-12T00:56:26;19.30;99.90
5792;DHT22;2922;53.482;10.006;2023-08-12T00:58:53;19.30;99.90
5792;DHT22;2922;53.482;10.006;2023-08-12T01:01:19;19.30;99.90
5792;DHT22;2922;53.482;10.006;2023-08-12T01:03:45;19.30;99.90
5792;DHT22;2922;53.482;10.006;2023-08-12T01:06:11;19.30;99.90
5792;DHT22;2922;53.482;10.006;2023-08-12T01:08:38;19.30;99.90
5792;DHT22;2922;53.482;10.006;2023-08-12T01:14:06;19.30;99.90
5792;DHT22;2922;53.482;10.006;2023-08-12T01:16:36;19.20;99.90
5792;DHT22;2922;53.482;10.006;2023-08-12T01:19:06;19.20;99.90
5792;DHT22;2922;53.482;10.006;2023-08-12T01:21:36;19.20;99.90
5792;DHT22;2922;53.482;10.006;2023-08-12T01:24:06;19.20;99.90
5792;DHT22;2922;53.482;10.006;2023-08-12T01:26:32;19.20;99.90
5792;DHT22;2922;53.482;10.006;2023-08-12T01:28:58;19.20;99.90
5792;DHT22;2922;53.482;10.006;2023-08-12T01:31:26;19.20;99.90
5792;DHT22;2922;53.482;10.006;2023-08-12T01:36:36;19.10;99.90
5792;DHT22;2922;53.482;10.006;2023-08-12T01:39:06;19.10;99.90
5792;DHT22;2922;53.482;10.006;2023-08-12T01:41:34;19.10;99.90
5792;DHT22;2922;53.482;10.006;2023-08-12T01:44:02;19.10;99.90
5792;DHT22;2922;53.482;10.006;2023-08-12T01:46:28;19.10;99.90
5792;DHT22;2922;53.482;10.006;2023-08-12T01:48:53;19.00;99.90
5792;DHT22;2922;53.482;10.006;2023-08-12T01:51:19;19.00;99.90
5792;DHT22;2922;53.482;10.006;2023-08-12T01:53:44;19.00;99.90
5792;DHT22;2922;53.482;10.006;2023-08-12T01:56:10;19.00;99.90
5792;DHT22;2922;53.482;10.006;2023-08-12T01:58:36;18.90;99.90
5792;DHT22;2922;53.482;10.006;2023-08-12T02:01:01;18.90;99.90
5792;DHT22;2922;53.482;10.006;2023-08-12T02:03:27;18.80;99.90
5792;DHT22;2922;53.482;10.006;2023-08-12T02:05:52;18.70;99.90
5792;DHT22;2922;53.482;10.006;2023-08-12T02:08:18;18.70;99.90
5792;DHT22;2922;53.482;10.006;2023-08-12T02:10:43;18.70;99.90
5792;DHT22;2922;53.482;10.006;2023-08-12T02:13:09;18.70;99.90
5792;DHT22;2922;53.482;10.006;2023-08-12T02:15:34;18.70;99.90
5792;DHT22;2922;53.482;10.006;2023-08-12T02:18:00;18.80;99.90
5792;DHT22;2922;53.482;10.006;2023-08-12T02:20:26;18.80;99.90
5792;DHT22;2922;53.482;10.006;2023-08-12T02:22:51;18.70;99.90
5792;DHT22;2922;53.482;10.006;2023-08-12T02:25:17;18.70;99.90
5792;DHT22;2922;53.482;10.006;2023-08-12T02:27:42;18.60;99.90
5792;DHT22;2922;53.482;10.006;2023-08-12T02:30:08;18.60;99.90
5792;DHT22;2922;53.482;10.006;2023-08-12T02:32:34;18.60;99.90
5792;DHT22;2922;53.482;10.006;2023-08-12T02:34:59;18.60;99.90
5792;DHT22;2922;53.482;10.006;2023-08-12T02:37:25;18.50;99.90
5792;DHT22;2922;53.482;10.006;2023-08-12T02:39:50;18.60;99.90
5792;DHT22;2922;53.482;10.006;2023-08-12T02:42:16;18.60;99.90
5792;DHT22;2922;53.482;10.006;2023-08-12T02:44:41;18.50;99.90
5792;DHT22;2922;53.482;10.006;2023-08-12T02:47:07;18.50;99.90
5792;DHT22;2922;53.482;10.006;2023-08-12T02:49:32;18.60;99.90
5792;DHT22;2922;53.482;10.006;2023-08-12T02:51:58;18.60;99.90
5792;DHT22;2922;53.482;10.006;2023-08-12T02:54:23;18.50;99.90
5792;DHT22;2922;53.482;10.006;2023-08-12T02:56:50;18.50;99.90
5792;DHT22;2922;53.482;10.006;2023-08-12T02:59:16;18.50;99.90
5792;DHT22;2922;53.482;10.006;2023-08-12T03:01:44;18.50;99.90
5792;DHT22;2922;53.482;10.006;2023-08-12T03:04:10;18.40;99.90
5792;DHT22;2922;53.482;10.006;2023-08-12T03:06:36;18.50;99.90
5792;DHT22;2922;53.482;10.006;2023-08-12T03:09:02;18.50;99.90
5792;DHT22;2922;53.482;10.006;2023-08-12T03:11:28;18.50;99.90
5792;DHT22;2922;53.482;10.006;2023-08-12T03:13:53;18.60;99.90
5792;DHT22;2922;53.482;10.006;2023-08-12T03:16:19;18.50;99.90
5792;DHT22;2922;53.482;10.006;2023-08-12T03:18:44;18.50;99.90
5792;DHT22;2922;53.482;10.006;2023-08-12T03:21:10;18.50;99.90
5792;DHT22;2922;53.482;10.006;2023-08-12T03:23:36;18.60;99.90
5792;DHT22;2922;53.482;10.006;2023-08-12T03:26:02;18.50;99.90
5792;DHT22;2922;53.482;10.006;2023-08-12T03:28:29;18.50;99.90
5792;DHT22;2922;53.482;10.006;2023-08-12T03:30:54;18.50;99.90
5792;DHT22;2922;53.482;10.006;2023-08-12T03:33:20;18.50;99.90
5792;DHT22;2922;53.482;10.006;2023-08-12T03:35:46;18.50;99.90
5792;DHT22;2922;53.482;10.006;2023-08-12T03:38:12;18.50;99.90
5792;DHT22;2922;53.482;10.006;2023-08-12T03:40:38;18.50;99.90
5792;DHT22;2922;53.482;10.006;2023-08-12T03:43:04;18.40;99.90
5792;DHT22;2922;53.482;10.006;2023-08-12T03:45:30;18.40;99.90
5792;DHT22;2922;53.482;10.006;2023-08-12T03:47:55;18.40;99.90
5792;DHT22;2922;53.482;10.006;2023-08-12T03:50:21;18.40;99.90
5792;DHT22;2922;53.482;10.006;2023-08-12T03:52:46;18.40;99.90
5792;DHT22;2922;53.482;10.006;2023-08-12T03:55:12;18.40;99.90
5792;DHT22;2922;53.482;10.006;2023-08-12T03:57:37;18.40;99.90
5792;DHT22;2922;53.482;10.006;2023-08-12T04:00:03;18.30;99.90
5792;DHT22;2922;53.482;10.006;2023-08-12T04:02:29;18.30;99.90
5792;DHT22;2922;53.482;10.006;2023-08-12T04:04:55;18.30;99.90
5792;DHT22;2922;53.482;10.006;2023-08-12T04:07:21;18.30;99.90
5792;DHT22;2922;53.482;10.006;2023-08-12T04:09:46;18.30;99.90
5792;DHT22;2922;53.482;10.006;2023-08-12T04:12:12;18.40;99.90
5792;DHT22;2922;53.482;10.006;2023-08-12T04:14:37;18.40;99.90
5792;DHT22;2922;53.482;10.006;2023-08-12T04:17:03;18.30;99.90
5792;DHT22;2922;53.482;10.006;2023-08-12T04:19:29;18.40;99.90
5792;DHT22;2922;53.482;10.006;2023-08-12T04:21:54;18.30;99.90
5792;DHT22;2922;53.482;10.006;2023-08-12T04:24:20;18.40;99.90
5792;DHT22;2922;53.482;10.006;2023-08-12T04:26:45;18.40;99.90
5792;DHT22;2922;53.482;10.006;2023-08-12T04:29:11;18.40;99.90
5792;DHT22;2922;53.482;10.006;2023-08-12T04:31:36;18.40;99.90
5792;DHT22;2922;53.482;10.006;2023-08-12T04:34:02;18.40;99.90
5792;DHT22;2922;53.482;10.006;2023-08-12T04:36:29;18.40;99.90
5792;DHT22;2922;53.482;10.006;2023-08-12T04:38:55;18.40;99.90
5792;DHT22;2922;53.482;10.006;2023-08-12T04:41:20;18.50;99.90
5792;DHT22;2922;53.482;10.006;2023-08-12T04:43:49;18.40;99.90
5792;DHT22;2922;53.482;10.006;2023-08-12T04:46:14;18.40;99.90
5792;DHT22;2922;53.482;10.006;2023-08-12T04:48:40;18.50;99.90
5792;DHT22;2922;53.482;10.006;2023-08-12T04:51:06;18.60;99.90
5792;DHT22;2922;53.482;10.006;2023-08-12T04:53:32;18.60;99.90
5792;DHT22;2922;53.482;10.006;2023-08-12T04:55:58;18.50;99.90
5792;DHT22;2922;53.482;10.006;2023-08-12T04:58:23;18.50;99.90
5792;DHT22;2922;53.482;10.006;2023-08-12T05:00:50;18.60;99.90
5792;DHT22;2922;53.482;10.006;2023-08-12T05:03:17;18.60;99.90
5792;DHT22;2922;53.482;10.006;2023-08-12T05:05:43;18.60;99.90
5792;DHT22;2922;53.482;10.006;2023-08-12T05:08:08;18.60;99.90
5792;DHT22;2922;53.482;10.006;2023-08-12T05:10:34;18.70;99.90
5792;DHT22;2922;53.482;10.006;2023-08-12T10:14:28;23.00;99.90
5792;DHT22;2922;53.482;10.006;2023-08-12T10:16:55;23.00;99.90
5792;DHT22;2922;53.482;10.006;2023-08-12T10:19:21;23.20;99.90
5792;DHT22;2922;53.482;10.006;2023-08-12T10:21:49;23.10;99.90
5792;DHT22;2922;53.482;10.006;2023-08-12T10:24:16;23.20;99.90
5792;DHT22;2922;53.482;10.006;2023-08-12T10:26:42;23.20;99.90
5792;DHT22;2922;53.482;10.006;2023-08-12T10:29:09;23.20;99.90
5792;DHT22;2922;53.482;10.006;2023-08-12T10:31:35;23.20;99.90
5792;DHT22;2922;53.482;10.006;2023-08-12T10:34:00;23.20;99.90
5792;DHT22;2922;53.482;10.006;2023-08-12T10:36:27;23.20;99.90
5792;DHT22;2922;53.482;10.006;2023-08-12T10:38:52;23.20;99.90
5792;DHT22;2922;53.482;10.006;2023-08-12T10:41:19;23.20;99.90
5792;DHT22;2922;53.482;10.006;2023-08-12T10:43:52;23.20;99.90
5792;DHT22;2922;53.482;10.006;2023-08-12T10:46:33;23.30;99.90
5792;DHT22;2922;53.482;10.006;2023-08-12T10:49:04;23.30;99.90
5792;DHT22;2922;53.482;10.006;2023-08-12T10:51:41;23.40;99.90
5792;DHT22;2922;53.482;10.006;2023-08-12T10:54:14;23.40;99.90
5792;DHT22;2922;53.482;10.006;2023-08-12T10:57:04;23.50;99.90
5792;DHT22;2922;53.482;10.006;2023-08-12T10:59:50;23.60;99.90
5792;DHT22;2922;53.482;10.006;2023-08-12T11:02:31;23.90;99.90
5792;DHT22;2922;53.482;10.006;2023-08-12T11:05:06;24.00;99.90
5792;DHT22;2922;53.482;10.006;2023-08-12T11:07:41;24.10;99.90
5792;DHT22;2922;53.482;10.006;2023-08-12T11:10:14;24.20;99.90
5792;DHT22;2922;53.482;10.006;2023-08-12T11:12:42;24.20;99.90
5792;DHT22;2922;53.482;10.006;2023-08-12T11:15:11;24.20;99.90
5792;DHT22;2922;53.482;10.006;2023-08-12T11:17:40;24.10;99.90
5792;DHT22;2922;53.482;10.006;2023-08-12T11:20:08;23.80;99.90
5792;DHT22;2922;53.482;10.006;2023-08-12T11:22:42;23.70;99.90
5792;DHT22;2922;53.482;10.006;2023-08-12T11:25:12;23.60;99.90
5792;DHT22;2922;53.482;10.006;2023-08-12T11:27:46;23.60;99.90
5792;DHT22;2922;53.482;10.006;2023-08-12T11:30:16;23.50;99.90
5792;DHT22;2922;53.482;10.006;2023-08-12T11:32:46;23.50;99.90
5792;DHT22;2922;53.482;10.006;2023-08-12T11:35:13;23.40;99.90
5792;DHT22;2922;53.482;10.006;2023-08-12T11:37:41;23.50;99.90
5792;DHT22;2922;53.482;10.006;2023-08-12T11:40:09;23.50;99.90
5792;DHT22;2922;53.482;10.006;2023-08-12T11:42:40;23.50;99.90
5792;DHT22;2922;53.482;10.006;2023-08-12T11:45:06;23.50;99.90
5792;DHT22;2922;53.482;10.006;2023-08-12T11:47:33;23.40;99.90
5792;DHT22;2922;53.482;10.006;2023-08-12T11:50:02;23.40;99.90
5792;DHT22;2922;53.482;10.006;2023-08-12T11:52:29;23.40;99.90
5792;DHT22;2922;53.482;10.006;2023-08-12T11:54:55;23.40;99.90
5792;DHT22;2922;53.482;10.006;2023-08-12T11:57:22;23.30;99.90
5792;DHT22;2922;53.482;10.006;2023-08-12T11:59:51;23.30;99.90
5792;DHT22;2922;53.482;10.006;2023-08-12T12:02:17;23.30;99.90
5792;DHT22;2922;53.482;10.006;2023-08-12T12:04:43;23.30;99.90
5792;DHT22;2922;53.482;10.006;2023-08-12T12:07:23;23.20;99.90
5792;DHT22;2922;53.482;10.006;2023-08-12T12:09:53;23.20;99.90
5792;DHT22;2922;53.482;10.006;2023-08-12T12:12:26;23.20;99.90
5792;DHT22;2922;53.482;10.006;2023-08-12T12:14:55;23.20;99.90
5792;DHT22;2922;53.482;10.006;2023-08-12T12:17:24;23.20;99.90
5792;DHT22;2922;53.482;10.006;2023-08-12T12:19:55;23.30;99.90
5792;DHT22;2922;53.482;10.006;2023-08-12T12:22:32;23.20;99.90
5792;DHT22;2922;53.482;10.006;2023-08-12T12:25:09;23.20;99.90
5792;DHT22;2922;53.482;10.006;2023-08-12T12:27:37;23.30;99.90
5792;DHT22;2922;53.482;10.006;2023-08-12T12:30:11;23.30;99.90
5792;DHT22;2922;53.482;10.006;2023-08-12T12:32:38;23.30;99.90
5792;DHT22;2922;53.482;10.006;2023-08-12T12:35:04;23.30;99.90
5792;DHT22;2922;53.482;10.006;2023-08-12T12:37:34;23.20;99.90
5792;DHT22;2922;53.482;10.006;2023-08-12T12:43:29;23.20;99.90
5792;DHT22;2922;53.482;10.006;2023-08-12T12:45:55;23.20;99.90
5792;DHT22;2922;53.482;10.006;2023-08-12T12:48:21;23.10;99.90
5792;DHT22;2922;53.482;10.006;2023-08-12T12:50:46;23.00;99.90
5792;DHT22;2922;53.482;10.006;2023-08-12T12:53:12;23.00;99.90
5792;DHT22;2922;53.482;10.006;2023-08-12T12:55:37;23.00;99.90
5792;DHT22;2922;53.482;10.006;2023-08-12T12:58:03;22.90;99.90
5792;DHT22;2922;53.482;10.006;2023-08-12T13:00:29;22.90;99.90
5792;DHT22;2922;53.482;10.006;2023-08-12T13:02:54;22.90;99.90
5792;DHT22;2922;53.482;10.006;2023-08-12T13:05:20;23.00;99.90
5792;DHT22;2922;53.482;10.006;2023-08-12T13:07:45;22.90;99.90
5792;DHT22;2922;53.482;10.006;2023-08-12T13:10:11;22.90;99.90
5792;DHT22;2922;53.482;10.006;2023-08-12T13:12:37;22.80;99.90
5792;DHT22;2922;53.482;10.006;2023-08-12T13:15:03;22.70;99.90
5792;DHT22;2922;53.482;10.006;2023-08-12T13:17:28;22.70;99.90
5792;DHT22;2922;53.482;10.006;2023-08-12T13:19:54;22.70;99.90
5792;DHT22;2922;53.482;10.006;2023-08-12T13:22:19;22.80;99.90
5792;DHT22;2922;53.482;10.006;2023-08-12T13:24:45;22.70;99.90
5792;DHT22;2922;53.482;10.006;2023-08-12T13:27:11;22.50;99.90
5792;DHT22;2922;53.482;10.006;2023-08-12T13:29:38;22.60;99.90
5792;DHT22;2922;53.482;10.006;2023-08-12T13:32:04;22.50;99.90
5792;DHT22;2922;53.482;10.006;2023-08-12T13:34:30;22.60;99.90
5792;DHT22;2922;53.482;10.006;2023-08-12T13:36:55;22.60;99.90
5792;DHT22;2922;53.482;10.006;2023-08-12T13:39:21;22.70;99.90
5792;DHT22;2922;53.482;10.006;2023-08-12T13:41:47;22.60;99.90
5792;DHT22;2922;53.482;10.006;2023-08-12T13:44:14;22.70;99.90
5792;DHT22;2922;53.482;10.006;2023-08-12T13:46:39;22.60;99.90
5792;DHT22;2922;53.482;10.006;2023-08-12T13:49:05;22.60;99.90
5792;DHT22;2922;53.482;10.006;2023-08-12T13:51:31;22.40;99.90
5792;DHT22;2922;53.482;10.006;2023-08-12T13:53:57;22.50;99.90
5792;DHT22;2922;53.482;10.006;2023-08-12T13:56:22;22.60;99.90
5792;DHT22;2922;53.482;10.006;2023-08-12T13:58:48;22.60;99.90
5792;DHT22;2922;53.482;10.006;2023-08-12T14:01:13;22.60;99.90
5792;DHT22;2922;53.482;10.006;2023-08-12T14:03:39;22.50;99.90
5792;DHT22;2922;53.482;10.006;2023-08-12T14:06:10;22.70;99.90
5792;DHT22;2922;53.482;10.006;2023-08-12T14:08:36;22.60;99.90
5792;DHT22;2922;53.482;10.006;2023-08-12T14:11:02;22.60;99.90
5792;DHT22;2922;53.482;10.006;2023-08-12T14:13:28;22.60;99.90
5792;DHT22;2922;53.482;10.006;2023-08-12T14:15:53;22.60;99.90
5792;DHT22;2922;53.482;10.006;2023-08-12T14:18:19;22.60;99.90
5792;DHT22;2922;53.482;10.006;2023-08-12T14:20:45;22.50;99.90
5792;DHT22;2922;53.482;10.006;2023-08-12T14:23:10;22.50;99.90
5792;DHT22;2922;53.482;10.006;2023-08-12T14:25:36;22.40;99.90
5792;DHT22;2922;53.482;10.006;2023-08-12T14:28:02;22.40;99.90
5792;DHT22;2922;53.482;10.006;2023-08-12T14:30:28;22.30;99.90
5792;DHT22;2922;53.482;10.006;2023-08-12T14:32:54;22.40;99.90
5792;DHT22;2922;53.482;10.006;2023-08-12T14:35:19;22.40;99.90
5792;DHT22;2922;53.482;10.006;2023-08-12T14:37:45;22.40;99.90
5792;DHT22;2922;53.482;10.006;2023-08-12T14:40:11;22.40;99.90
5792;DHT22;2922;53.482;10.006;2023-08-12T14:42:36;22.30;99.90
5792;DHT22;2922;53.482;10.006;2023-08-12T14:45:02;22.30;99.90
5792;DHT22;2922;53.482;10.006;2023-08-12T14:47:28;22.40;99.90
5792;DHT22;2922;53.482;10.006;2023-08-12T14:49:54;22.50;99.90
5792;DHT22;2922;53.482;10.006;2023-08-12T14:52:20;22.50;99.90
5792;DHT22;2922;53.482;10.006;2023-08-12T14:54:46;22.50;99.90
5792;DHT22;2922;53.482;10.006;2023-08-12T14:57:12;22.40;99.90
5792;DHT22;2922;53.482;10.006;2023-08-12T14:59:38;22.40;99.90
5792;DHT22;2922;53.482;10.006;2023-08-12T15:02:04;22.50;99.90
5792;DHT22;2922;53.482;10.006;2023-08-12T15:04:29;22.40;99.90
5792;DHT22;2922;53.482;10.006;2023-08-12T15:06:55;22.60;99.90
5792;DHT22;2922;53.482;10.006;2023-08-12T15:09:21;22.50;99.90
5792;DHT22;2922;53.482;10.006;2023-08-12T15:11:46;22.50;99.90
5792;DHT22;2922;53.482;10.006;2023-08-12T15:14:12;22.80;99.90
5792;DHT22;2922;53.482;10.006;2023-08-12T15:16:37;22.90;99.90
5792;DHT22;2922;53.482;10.006;2023-08-12T15:19:03;22.90;99.90
5792;DHT22;2922;53.482;10.006;2023-08-12T15:21:29;23.00;99.90
5792;DHT22;2922;53.482;10.006;2023-08-12T15:23:55;23.10;99.90
5792;DHT22;2922;53.482;10.006;2023-08-12T15:26:21;23.00;99.90
5792;DHT22;2922;53.482;10.006;2023-08-12T15:28:48;23.00;99.90
5792;DHT22;2922;53.482;10.006;2023-08-12T15:31:14;23.10;99.90
5792;DHT22;2922;53.482;10.006;2023-08-12T15:33:40;23.10;99.90
5792;DHT22;2922;53.482;10.006;2023-08-12T15:36:06;23.20;99.90
5792;DHT22;2922;53.482;10.006;2023-08-12T15:38:32;23.30;99.90
5792;DHT22;2922;53.482;10.006;2023-08-12T15:40:59;23.30;99.90
5792;DHT22;2922;53.482;10.006;2023-08-12T15:43:24;23.40;99.90
5792;DHT22;2922;53.482;10.006;2023-08-12T15:45:50;23.40;99.90
5792;DHT22;2922;53.482;10.006;2023-08-12T15:48:16;23.20;99.90
5792;DHT22;2922;53.482;10.006;2023-08-12T15:50:43;23.20;99.90
5792;DHT22;2922;53.482;10.006;2023-08-12T15:53:10;23.40;99.90
5792;DHT22;2922;53.482;10.006;2023-08-12T15:55:35;23.30;99.90
5792;DHT22;2922;53.482;10.006;2023-08-12T15:58:01;23.40;99.90
5792;DHT22;2922;53.482;10.006;2023-08-12T16:00:27;23.30;99.90
5792;DHT22;2922;53.482;10.006;2023-08-12T16:02:52;23.40;99.90
5792;DHT22;2922;53.482;10.006;2023-08-12T16:05:18;23.60;99.90
5792;DHT22;2922;53.482;10.006;2023-08-12T16:07:43;23.70;99.90
5792;DHT22;2922;53.482;10.006;2023-08-12T16:10:09;23.70;99.90
5792;DHT22;2922;53.482;10.006;2023-08-12T16:12:35;23.60;99.90
5792;DHT22;2922;53.482;10.006;2023-08-12T16:15:01;23.60;99.90
5792;DHT22;2922;53.482;10.006;2023-08-12T16:17:27;23.50;99.90
5792;DHT22;2922;53.482;10.006;2023-08-12T16:19:52;23.30;99.90
5792;DHT22;2922;53.482;10.006;2023-08-12T16:22:18;23.30;99.90
5792;DHT22;2922;53.482;10.006;2023-08-12T16:24:43;23.20;99.90
5792;DHT22;2922;53.482;10.006;2023-08-12T16:27:09;23.20;99.90
5792;DHT22;2922;53.482;10.006;2023-08-12T16:29:35;22.90;99.90
5792;DHT22;2922;53.482;10.006;2023-08-12T16:32:00;23.00;99.90
5792;DHT22;2922;53.482;10.006;2023-08-12T16:34:26;23.20;99.90
5792;DHT22;2922;53.482;10.006;2023-08-12T16:36:52;23.10;99.90
5792;DHT22;2922;53.482;10.006;2023-08-12T16:39:17;23.10;99.90
5792;DHT22;2922;53.482;10.006;2023-08-12T16:41:43;23.10;99.90
5792;DHT22;2922;53.482;10.006;2023-08-12T16:44:09;22.90;99.90
5792;DHT22;2922;53.482;10.006;2023-08-12T16:46:34;22.90;99.90
5792;DHT22;2922;53.482;10.006;2023-08-12T16:49:00;22.70;99.90
5792;DHT22;2922;53.482;10.006;2023-08-12T16:51:26;22.70;99.90
5792;DHT22;2922;53.482;10.006;2023-08-12T16:53:51;22.60;99.90
5792;DHT22;2922;53.482;10.006;2023-08-12T16:56:17;22.50;99.90
5792;DHT22;2922;53.482;10.006;2023-08-12T16:58:43;22.30;99.90
5792;DHT22;2922;53.482;10.006;2023-08-12T17:01:08;22.20;99.90
5792;DHT22;2922;53.482;10.006;2023-08-12T17:03:34;22.10;99.90
5792;DHT22;2922;53.482;10.006;2023-08-12T17:05:59;22.00;99.90
5792;DHT22;2922;53.482;10.006;2023-08-12T17:08:25;22.00;99.90
5792;DHT22;2922;53.482;10.006;2023-08-12T17:10:50;21.90;99.90
5792;DHT22;2922;53.482;10.006;2023-08-12T17:13:16;21.80;99.90
5792;DHT22;2922;53.482;10.006;2023-08-12T17:15:43;21.80;99.90
5792;DHT22;2922;53.482;10.006;2023-08-12T17:18:09;21.70;99.90
5792;DHT22;2922;53.482;10.006;2023-08-12T17:20:35;21.70;99.90
5792;DHT22;2922;53.482;10.006;2023-08-12T17:23:00;21.60;99.90
5792;DHT22;2922;53.482;10.006;2023-08-12T17:25:26;21.60;99.90
5792;DHT22;2922;53.482;10.006;2023-08-12T17:27:51;21.60;99.90
5792;DHT22;2922;53.482;10.006;2023-08-12T17:30:18;21.70;99.90
5792;DHT22;2922;53.482;10.006;2023-08-12T17:32:44;21.60;99.90
5792;DHT22;2922;53.482;10.006;2023-08-12T17:35:09;21.60;99.90
5792;DHT22;2922;53.482;10.006;2023-08-12T17:37:38;21.40;99.90
5792;DHT22;2922;53.482;10.006;2023-08-12T17:40:04;21.40;99.90
5792;DHT22;2922;53.482;10.006;2023-08-12T17:42:31;21.40;99.90
5792;DHT22;2922;53.482;10.006;2023-08-12T17:44:56;21.40;99.90
5792;DHT22;2922;53.482;10.006;2023-08-12T17:47:22;21.40;99.90
5792;DHT22;2922;53.482;10.006;2023-08-12T17:49:48;21.50;99.90
5792;DHT22;2922;53.482;10.006;2023-08-12T17:52:13;21.40;99.90
5792;DHT22;2922;53.482;10.006;2023-08-12T17:54:39;21.40;99.90
5792;DHT22;2922;53.482;10.006;2023-08-12T17:57:05;21.30;99.90
5792;DHT22;2922;53.482;10.006;2023-08-12T17:59:30;21.30;99.90
5792;DHT22;2922;53.482;10.006;2023-08-12T18:01:58;21.30;99.90
5792;DHT22;2922;53.482;10.006;2023-08-12T18:04:25;21.20;99.90
5792;DHT22;2922;53.482;10.006;2023-08-12T18:06:50;21.20;99.90
5792;DHT22;2922;53.482;10.006;2023-08-12T18:09:17;21.20;99.90
5792;DHT22;2922;53.482;10.006;2023-08-12T18:11:44;21.10;99.90
5792;DHT22;2922;53.482;10.006;2023-08-12T18:14:09;21.20;99.90
5792;DHT22;2922;53.482;10.006;2023-08-12T18:16:35;21.00;99.90
5792;DHT22;2922;53.482;10.006;2023-08-12T18:19:19;21.10;99.90
5792;DHT22;2922;53.482;10.006;2023-08-12T18:21:44;20.90;99.90
5792;DHT22;2922;53.482;10.006;2023-08-12T18:24:10;20.90;99.90
5792;DHT22;2922;53.482;10.006;2023-08-12T18:26:36;20.80;99.90
5792;DHT22;2922;53.482;10.006;2023-08-12T18:29:01;20.80;99.90
5792;DHT22;2922;53.482;10.006;2023-08-12T18:31:27;20.80;99.90
5792;DHT22;2922;53.482;10.006;2023-08-12T18:33:53;20.80;99.90
5792;DHT22;2922;53.482;10.006;2023-08-12T18:36:18;20.80;99.90
5792;DHT22;2922;53.482;10.006;2023-08-12T18:38:44;20.70;99.90
5792;DHT22;2922;53.482;10.006;2023-08-12T18:41:11;20.60;99.90
5792;DHT22;2922;53.482;10.006;2023-08-12T18:43:36;20.60;99.90
5792;DHT22;2922;53.482;10.006;2023-08-12T18:46:03;20.60;99.90
5792;DHT22;2922;53.482;10.006;2023-08-12T18:48:29;20.40;99.90
5792;DHT22;2922;53.482;10.006;2023-08-12T18:50:54;20.30;99.90
5792;DHT22;2922;53.482;10.006;2023-08-12T18:53:20;20.30;99.90
5792;DHT22;2922;53.482;10.006;2023-08-12T18:55:45;20.20;99.90
5792;DHT22;2922;53.482;10.006;2023-08-12T18:58:11;20.10;99.90
5792;DHT22;2922;53.482;10.006;2023-08-12T19:00:38;20.00;99.90
5792;DHT22;2922;53.482;10.006;2023-08-12T19:03:03;19.90;99.90
5792;DHT22;2922;53.482;10.006;2023-08-12T19:05:29;19.90;99.90
5792;DHT22;2922;53.482;10.006;2023-08-12T19:07:54;19.80;99.90
5792;DHT22;2922;53.482;10.006;2023-08-12T19:10:20;19.70;99.90
5792;DHT22;2922;53.482;10.006;2023-08-12T19:12:46;19.70;99.90
5792;DHT22;2922;53.482;10.006;2023-08-12T19:15:11;19.60;99.90
5792;DHT22;2922;53.482;10.006;2023-08-12T19:17:37;19.60;99.90
5792;DHT22;2922;53.482;10.006;2023-08-12T19:20:03;19.50;99.90
5792;DHT22;2922;53.482;10.006;2023-08-12T19:22:29;19.40;99.90
5792;DHT22;2922;53.482;10.006;2023-08-12T19:24:54;19.40;99.90
5792;DHT22;2922;53.482;10.006;2023-08-12T19:27:20;19.30;99.90
5792;DHT22;2922;53.482;10.006;2023-08-12T19:29:46;19.30;99.90
5792;DHT22;2922;53.482;10.006;2023-08-12T19:32:11;19.20;99.90
5792;DHT22;2922;53.482;10.006;2023-08-12T19:34:37;19.10;99.90
5792;DHT22;2922;53.482;10.006;2023-08-12T19:37:03;19.10;99.90
5792;DHT22;2922;53.482;10.006;2023-08-12T19:39:28;18.90;99.90
5792;DHT22;2922;53.482;10.006;2023-08-12T19:41:54;18.90;99.90
5792;DHT22;2922;53.482;10.006;2023-08-12T19:44:19;18.90;99.90
5792;DHT22;2922;53.482;10.006;2023-08-12T19:46:45;18.80;99.90
5792;DHT22;2922;53.482;10.006;2023-08-12T19:49:10;18.70;99.90
5792;DHT22;2922;53.482;10.006;2023-08-12T19:51:36;18.70;99.90
5792;DHT22;2922;53.482;10.006;2023-08-12T19:54:01;18.70;99.90
5792;DHT22;2922;53.482;10.006;2023-08-12T19:56:27;18.60;99.90
5792;DHT22;2922;53.482;10.006;2023-08-12T19:58:52;18.60;99.90
5792;DHT22;2922;53.482;10.006;2023-08-12T20:01:18;18.60;99.90
5792;DHT22;2922;53.482;10.006;2023-08-12T20:03:44;18.50;99.90
5792;DHT22;2922;53.482;10.006;2023-08-12T20:06:10;18.50;99.90
5792;DHT22;2922;53.482;10.006;2023-08-12T20:08:36;18.40;99.90
5792;DHT22;2922;53.482;10.006;2023-08-12T20:11:01;18.40;99.90
5792;DHT22;2922;53.482;10.006;2023-08-12T20:13:27;18.40;99.90
5792;DHT22;2922;53.482;10.006;2023-08-12T20:15:52;18.40;99.90
5792;DHT22;2922;53.482;10.006;2023-08-12T20:18:26;18.40;99.90
5792;DHT22;2922;53.482;10.006;2023-08-12T20:20:52;18.30;99.90
5792;DHT22;2922;53.482;10.006;2023-08-12T20:23:18;18.30;99.90
5792;DHT22;2922;53.482;10.006;2023-08-12T20:25:44;18.30;99.90
5792;DHT22;2922;53.482;10.006;2023-08-12T20:28:10;18.30;99.90
5792;DHT22;2922;53.482;10.006;2023-08-12T20:30:35;18.20;99.90
5792;DHT22;2922;53.482;10.006;2023-08-12T20:33:02;18.20;99.90
5792;DHT22;2922;53.482;10.006;2023-08-12T20:35:28;18.10;99.90
5792;DHT22;2922;53.482;10.006;2023-08-12T20:37:53;18.10;99.90
5792;DHT22;2922;53.482;10.006;2023-08-12T20:40:19;18.10;99.90
5792;DHT22;2922;53.482;10.006;2023-08-12T20:42:45;18.10;99.90
5792;DHT22;2922;53.482;10.006;2023-08-12T20:45:11;18.00;99.90
5792;DHT22;2922;53.482;10.006;2023-08-12T20:47:38;18.00;99.90
5792;DHT22;2922;53.482;10.006;2023-08-12T20:50:04;18.00;99.90